Station: Jervois  

  Atmospheric Gas Attenuation - ITU Rec 676-11   ----------------- dB/100km -----------------
Date Time Temp RH % AH g/m3 Dew Point Wind Direction Speed kph Gust kph Barometer mB Rainfall Since 9am 24GHz 47GHz 76GHz 122GHz 134GHz 241GHz
06/05 11:40 20.3 36 6.33 4.8 30 33 1021.5 0 14.5 21.1 29.0 75.6 64.7 221.1
06/05 11:30 21.2 37 6.86 5.9 22 35 1021.7 0 15.6 21.7 30.5 79.6 69.9 239.5
06/05 11:20 20.1 38 6.61 5.4 19 22 1021.9 0 15.1 21.6 30.1 78.4 68.1 232.8
06/05 11:10 20.2 39 6.82 5.8 24 33 1022 0 15.5 21.8 30.7 80.2 70.4 240.9
06/05 11:00 20.1 39 6.78 5.7 22 35 1022 0 15.5 21.8 30.6 79.9 70.0 239.6
06/05 10:50 20 39 6.74 5.6 20 32 1022.3 0 15.4 21.8 30.6 79.7 69.6 238.4
06/05 09:10 17.4 49 7.26 6.6 13 15 1022.6 0 16.6 23.2 33.4 87.3 78.2 267.9
06/05 09:00 17 50 7.23 6.5 17 26 1022.5 0 16.5 23.2 33.5 87.5 78.2 267.9
06/05 08:50 16.3 51 7.08 6.2 20 24 1022.5 0 16.2 23.2 33.2 86.7 77.0 263.9
06/05 08:40 16 53 7.22 6.4 17 20 1022.3 0 16.6 23.5 33.8 88.4 79.0 270.8
06/05 08:30 15.3 55 7.18 6.3 17 24 1022.1 0 16.5 23.6 34.0 88.8 79.2 271.4
06/05 08:20 15 57 7.31 6.6 15 20 1022.1 0 16.8 23.9 34.6 90.4 81.1 278.1
06/05 08:10 14.1 59 7.16 6.2 17 20 1022.1 0 16.5 23.9 34.4 89.9 80.2 274.6
06/05 08:00 13.3 62 7.16 6.2 13 20 1021.9 0 16.5 24.1 34.7 90.8 81.0 277.3
06/05 07:50 12.3 66 7.17 6.1 15 19 1021.9 0 16.6 24.4 35.2 92.1 82.2 281.3
06/05 07:40 11.4 70 7.19 6.1 11 13 1021.7 0 16.7 24.6 35.7 93.3 83.4 285.4
06/05 07:30 10.5 73 7.08 5.9 9 13 1021.7 0 16.5 24.7 35.7 93.2 82.9 283.6
06/05 07:20 9.6 76 6.96 5.6 9 11 1021.5 0 16.3 24.7 35.6 93.0 82.2 281.2
06/05 07:10 8.9 78 6.84 5.3 9 11 1021.4 0 16.0 24.7 35.4 92.5 81.4 278.1
06/05 07:00 8.6 79 6.79 5.2 9 13 1021.3 0 15.9 24.7 35.3 92.3 81.0 276.8
06/05 06:50 8.3 80 6.75 5.1 9 11 1021.2 0 15.9 24.7 35.3 92.2 80.8 276.0
06/05 06:40 8.3 80 6.75 5.1 9 11 1021.2 0 15.9 24.7 35.3 92.2 80.8 276.0
06/05 06:30 8.2 80 6.7 5 9 11 1021 0 15.8 24.7 35.1 91.8 80.2 273.9
06/05 06:20 8.2 80 6.7 5 9 11 1021 0 15.8 24.7 35.1 91.8 80.2 273.9
06/05 06:10 8.3 79 6.66 4.9 7 9 1020.9 0 15.7 24.6 34.9 91.2 79.6 271.7
06/05 06:00 8.4 79 6.7 5 7 9 1020.8 0 15.8 24.6 35.0 91.5 80.0 273.2
06/05 05:50 8.6 78 6.7 5 7 9 1020.8 0 15.7 24.6 34.9 91.3 79.8 272.5
06/05 05:40 8.6 78 6.7 5 7 9 1020.6 0 15.7 24.6 34.9 91.3 79.8 272.5
06/05 05:30 8.7 77 6.66 4.9 7 9 1020.5 0 15.7 24.5 34.7 90.7 79.1 270.2
06/05 05:20 8.9 76 6.66 4.9 7 9 1020.6 0 15.6 24.4 34.6 90.5 78.9 269.6
06/05 05:10 9 76 6.7 5 7 9 1020.5 0 15.7 24.4 34.7 90.8 79.4 271.1
06/05 05:00 9.3 74 6.65 4.9 7 9 1020.5 0 15.6 24.3 34.4 89.9 78.4 267.7
06/05 04:50 9.5 73 6.65 4.9 7 7 1020.4 0 15.6 24.2 34.3 89.7 78.2 267.0
06/05 04:40 9.8 72 6.68 5 9 9 1020.4 0 15.7 24.2 34.3 89.7 78.3 267.4
06/05 04:30 9.9 72 6.72 5.1 9 11 1020.3 0 15.7 24.2 34.4 90.0 78.7 268.9
06/05 04:20 10 72 6.77 5.2 9 13 1020.3 0 15.8 24.3 34.6 90.4 79.2 270.8
06/05 04:10 9.9 72 6.72 5.1 9 11 1020.3 0 15.7 24.2 34.4 90.0 78.7 268.9
06/05 04:00 10 72 6.77 5.2 9 13 1020.3 0 15.8 24.3 34.6 90.4 79.2 270.8
06/05 03:50 9.9 72 6.72 5.1 13 17 1020.2 0 15.7 24.2 34.4 89.9 78.7 268.8
06/05 03:40 9.8 72 6.68 5 9 11 1020.2 0 15.7 24.2 34.3 89.6 78.3 267.3
06/05 03:30 9.8 72 6.68 5 11 15 1020.3 0 15.7 24.2 34.3 89.6 78.3 267.4
06/05 03:20 9.9 71 6.63 4.9 9 11 1020.4 0 15.5 24.1 34.1 89.0 77.5 264.8
06/05 03:10 10 71 6.67 5 9 11 1020.4 0 15.6 24.1 34.2 89.3 77.9 266.3
06/05 03:00 10 71 6.67 5 9 11 1020.5 0 15.6 24.1 34.2 89.3 78.0 266.3
06/05 02:50 10.1 70 6.62 4.9 9 11 1020.6 0 15.5 24.0 34.0 88.7 77.2 263.7
06/05 02:40 10.2 70 6.66 5 7 9 1020.7 0 15.6 24.1 34.1 89.0 77.6 265.2
06/05 02:30 10.2 70 6.66 5 7 11 1020.7 0 15.6 24.1 34.1 89.0 77.6 265.2
06/05 02:20 10.2 69 6.57 4.8 7 9 1020.8 0 15.4 23.9 33.7 88.1 76.5 261.1
06/05 02:10 10.4 68 6.56 4.8 7 9 1020.9 0 15.4 23.9 33.6 87.8 76.2 260.1
06/05 02:00 10.6 67 6.54 4.7 7 11 1020.9 0 15.3 23.8 33.5 87.3 75.7 258.5
06/05 01:50 11 66 6.61 4.9 9 11 1020.9 0 15.5 23.8 33.6 87.6 76.2 260.3
06/05 01:40 11.1 65 6.55 4.8 11 13 1020.9 0 15.3 23.7 33.3 86.9 75.4 257.3
06/05 01:30 11.3 64 6.53 4.7 9 15 1020.9 0 15.3 23.6 33.1 86.5 74.9 255.8
06/05 01:20 11.3 64 6.53 4.7 9 11 1020.9 0 15.3 23.6 33.1 86.5 74.9 255.8
06/05 01:10 11.5 64 6.61 4.9 9 9 1020.8 0 15.4 23.6 33.3 87.1 75.7 258.7
06/05 01:00 11.6 63 6.55 4.8 9 15 1020.9 0 15.3 23.5 33.1 86.4 74.9 255.7
06/05 00:50 11.6 63 6.55 4.8 9 13 1020.9 0 15.3 23.5 33.1 86.4 74.9 255.7
06/05 00:40 11.6 63 6.55 4.8 9 11 1021.1 0 15.3 23.5 33.1 86.4 74.9 255.8
06/05 00:30 11.4 63 6.47 4.6 9 11 1021.2 0 15.1 23.5 32.9 85.8 74.1 252.9
06/05 00:20 11.6 63 6.55 4.8 7 9 1021.3 0 15.3 23.5 33.1 86.4 74.9 255.8
06/05 00:10 11.7 63 6.59 4.9 7 9 1021.4 0 15.4 23.6 33.2 86.7 75.3 257.3
06/05 00:00 11.6 63 6.55 4.8 7 11 1021.4 0 15.3 23.6 33.1 86.4 74.9 255.8
05/05 23:50 11.8 62 6.53 4.8 7 9 1021.5 0 15.3 23.5 32.9 86.0 74.5 254.3
05/05 23:40 11.9 61 6.46 4.6 7 7 1021.4 0 15.1 23.3 32.6 85.2 73.5 250.9
05/05 23:30 12 61 6.5 4.7 7 11 1021.5 0 15.2 23.4 32.7 85.5 73.9 252.4
05/05 23:20 12.1 60 6.44 4.6 9 11 1021.6 0 15.1 23.3 32.5 84.8 73.1 249.4
05/05 23:10 12.2 59 6.37 4.4 7 9 1021.6 0 14.9 23.1 32.2 84.0 72.1 246.0
05/05 23:00 12.4 58 6.34 4.4 7 11 1021.7 0 14.8 23.0 32.0 83.4 71.6 244.1
05/05 22:50 12.7 57 6.35 4.4 7 9 1021.7 0 14.8 23.0 31.9 83.2 71.4 243.7
05/05 22:40 13.1 56 6.39 4.5 9 9 1021.7 0 14.9 22.9 31.9 83.2 71.5 244.2
05/05 22:30 13.3 56 6.47 4.7 9 17 1021.8 0 15.1 23.0 32.1 83.8 72.4 247.1
05/05 22:20 13 56 6.35 4.4 9 11 1021.7 0 14.8 22.9 31.8 82.9 71.1 242.8
05/05 22:10 13.2 56 6.43 4.6 9 11 1021.7 0 15.0 23.0 32.0 83.5 72.0 245.6
05/05 22:00 12.9 57 6.42 4.6 9 11 1021.7 0 15.0 23.0 32.1 83.7 72.1 246.1
05/05 21:50 13.2 55 6.32 4.4 7 9 1021.9 0 14.8 22.8 31.6 82.4 70.6 240.9
05/05 21:40 13.7 54 6.39 4.6 7 9 1021.9 0 14.9 22.8 31.7 82.6 71.0 242.4
05/05 21:30 13.8 53 6.32 4.4 9 11 1021.7 0 14.7 22.7 31.4 81.8 70.1 239.1
05/05 21:20 13.9 53 6.35 4.5 9 11 1021.7 0 14.8 22.7 31.4 82.0 70.3 240.1
05/05 21:10 14 52 6.27 4.3 7 9 1021.6 0 14.6 22.5 31.1 81.1 69.3 236.3
05/05 21:00 14.3 51 6.27 4.3 9 11 1021.6 0 14.6 22.5 31.0 80.8 69.0 235.5
05/05 20:50 14.3 51 6.27 4.3 9 9 1021.6 0 14.6 22.5 31.0 80.8 69.0 235.5
05/05 20:40 14.6 50 6.26 4.3 7 9 1021.6 0 14.6 22.4 30.8 80.4 68.6 234.2
05/05 20:30 14.9 49 6.24 4.3 9 13 1021.5 0 14.5 22.3 30.7 79.9 68.1 232.4
05/05 20:20 15 48 6.15 4.1 9 9 1021.4 0 14.3 22.1 30.3 78.9 67.0 228.4
05/05 20:10 15.4 47 6.17 4.2 11 11 1021.4 0 14.4 22.0 30.2 78.7 66.9 228.1
05/05 20:00 15.3 47 6.14 4.1 9 13 1021.4 0 14.3 22.0 30.1 78.5 66.6 227.1
05/05 19:50 15.5 46 6.08 3.9 9 9 1021.2 0 14.2 21.9 29.8 77.8 65.7 224.0
05/05 19:40 16.1 44 6.03 3.9 9 11 1021.1 0 14.0 21.7 29.4 76.7 64.6 220.3
05/05 19:30 16.6 43 6.07 4 11 15 1021 0 14.1 21.6 29.4 76.6 64.7 220.6
05/05 19:20 16.7 42 5.97 3.7 11 13 1020.9 0 13.9 21.4 29.0 75.6 63.4 216.2
05/05 19:10 17 41 5.93 3.7 11 11 1020.8 0 13.8 21.3 28.8 74.9 62.7 213.8
05/05 19:00 17.3 40 5.89 3.6 9 15 1020.7 0 13.7 21.2 28.5 74.2 62.1 211.4
05/05 18:50 17.7 39 5.88 3.6 11 11 1020.5 0 13.7 21.1 28.3 73.8 61.6 209.9
05/05 18:40 18.1 38 5.87 3.6 11 13 1020.4 0 13.6 20.9 28.2 73.3 61.2 208.5
05/05 18:30 18.6 36 5.73 3.3 11 15 1020.3 0 13.3 20.6 27.5 71.6 59.2 201.7
05/05 18:20 19 35 5.7 3.2 13 15 1020.1 0 13.2 20.5 27.3 71.0 58.6 199.5
05/05 18:10 19.4 35 5.84 3.6 13 17 1020.1 0 13.5 20.6 27.6 71.9 59.9 204.0
05/05 18:00 19.7 34 5.77 3.4 11 17 1020 0 13.4 20.4 27.3 71.0 58.9 200.5
05/05 17:50 20.2 33 5.77 3.4 9 11 1019.9 0 13.3 20.3 27.1 70.5 58.5 199.3
05/05 17:40 20.8 32 5.79 3.5 13 17 1019.7 0 13.4 20.2 27.0 70.2 58.3 198.6

Last Refresh: 06-May-2026 11:46:58

Bureau of Meteorology